Terminal Aerodrome Forecast
Issued by NWS

Home | Current Version | Previous Version | Text Only | Print | Product List | Glossary On
Versions: 1 2 3 4 5 6 7 8 9 10 11 12 13 14 15
000
FTUS45 KRIW 272300
TAFCPR
TAF
KCPR 272329Z 2800/2824 21009KT P6SM SCT070
     FM280300 01006KT P6SM SCT035 BKN050
     FM280700 02007KT P6SM VCSH SCT013 BKN023
     FM281800 06008KT P6SM SCT019 BKN030=

USA.gov is the U.S. government's official web portal to all federal, state and local government web resources and services.